createdAt,value
2022-09-25T07:57:51.996Z,22.80
2022-09-25T08:00:19.272Z,23.15
2022-09-25T08:02:56.065Z,23.25
2022-09-25T08:05:22.917Z,23.38
2022-09-25T08:07:49.702Z,21.98
2022-09-25T08:10:16.532Z,23.35
2022-09-25T08:12:43.342Z,24.75
2022-09-25T08:15:10.699Z,22.35
2022-09-25T08:17:37.425Z,21.80
2022-09-25T08:20:04.480Z,21.77
2022-09-25T08:22:31.269Z,21.30
2022-09-25T08:24:58.025Z,21.58
2022-09-25T08:27:24.827Z,21.52
2022-09-25T08:29:51.694Z,21.42
2022-09-25T08:32:18.484Z,21.77
2022-09-25T08:34:45.364Z,22.73
2022-09-25T08:37:12.215Z,22.98
2022-09-25T08:39:39.036Z,22.70
2022-09-25T08:42:06.600Z,23.27
2022-09-25T08:45:02.358Z,22.38
2022-09-25T08:47:49.237Z,23.23
2022-09-25T08:50:22.465Z,23.17
2022-09-25T08:53:01.494Z,22.33
2022-09-25T08:55:49.805Z,22.80
2022-09-25T08:59:05.810Z,22.88
2022-09-25T09:01:46.230Z,21.38
2022-09-25T09:04:21.897Z,22.20
2022-09-25T09:07:24.570Z,21.83
2022-09-25T09:09:48.112Z,21.17
2022-09-25T09:12:22.665Z,21.75
2022-09-25T09:14:52.715Z,21.48
2022-09-25T09:17:24.804Z,20.80
2022-09-25T09:19:59.454Z,22.05
2022-09-25T09:22:37.474Z,20.23
2022-09-25T09:25:28.926Z,19.83
2022-09-25T09:28:03.487Z,19.38
2022-09-25T09:30:47.958Z,19.33
2022-09-25T09:33:43.961Z,18.50
2022-09-25T09:36:10.785Z,17.80
2022-09-25T09:38:50.415Z,19.33
2022-09-25T09:41:54.955Z,19.35
2022-09-25T09:44:58.737Z,18.40
2022-09-25T09:47:33.605Z,19.00
2022-09-25T09:50:18.459Z,18.75
2022-09-25T09:52:48.848Z,15.60
2022-09-25T09:55:33.461Z,14.65
2022-09-25T09:58:08.721Z,13.95
2022-09-25T10:00:36.624Z,14.30
2022-09-25T10:03:11.662Z,14.00
2022-09-25T10:05:42.165Z,14.15
2022-09-25T10:08:12.213Z,13.57
2022-09-25T10:10:42.131Z,13.60
2022-09-25T10:13:26.038Z,13.27
2022-09-25T10:15:58.996Z,11.85
2022-09-25T10:18:31.850Z,12.43
2022-09-25T10:21:05.643Z,12.60
2022-09-25T10:23:54.286Z,11.32
2022-09-25T10:26:28.421Z,11.27
2022-09-25T10:28:59.924Z,10.88
2022-09-25T10:31:31.017Z,10.35
2022-09-25T10:34:13.247Z,10.13
2022-09-25T10:36:46.288Z,11.55
2022-09-25T10:39:44.772Z,13.90
2022-09-25T10:42:35.317Z,10.05
2022-09-25T10:45:28.175Z,11.13
2022-09-25T10:48:13.663Z,9.95
2022-09-25T10:50:40.633Z,8.80
2022-09-25T10:53:30.792Z,7.70
2022-09-25T10:56:12.550Z,8.82
2022-09-25T10:58:48.519Z,7.95
2022-09-25T13:42:57.817Z,8.75
2022-09-25T13:45:37.468Z,8.27
2022-09-25T13:48:10.281Z,8.15
2022-09-25T13:50:45.655Z,7.97
2022-09-25T13:53:22.476Z,8.50
2022-09-25T13:55:55.009Z,9.18
2022-09-25T13:58:32.228Z,8.70
2022-09-25T14:01:01.151Z,8.77
2022-09-25T14:03:44.602Z,9.23
2022-09-25T14:06:23.606Z,8.77
2022-09-25T14:08:53.318Z,8.95
2022-09-25T14:11:26.977Z,9.50
2022-09-25T14:13:56.804Z,10.10
2022-09-25T14:16:42.432Z,8.63
2022-09-25T14:19:14.504Z,9.57
2022-09-25T14:21:45.211Z,9.43
2022-09-25T14:24:20.448Z,8.75
2022-09-25T14:26:49.195Z,9.35
2022-09-25T14:29:23.455Z,9.93
2022-09-25T14:32:42.763Z,10.40
2022-09-25T14:35:15.654Z,8.95
2022-09-25T14:37:53.089Z,8.75
2022-09-25T14:40:34.029Z,8.20
2022-09-25T14:43:14.893Z,8.50
2022-09-25T14:45:53.966Z,9.10
2022-09-25T14:48:27.407Z,8.80
2022-09-25T14:51:01.236Z,8.45
2022-09-25T14:53:46.563Z,8.70
2022-09-25T14:56:15.181Z,8.45
2022-09-25T14:58:49.737Z,8.60
2022-09-25T15:01:24.647Z,7.60
2022-09-25T15:03:52.426Z,8.57
2022-09-25T15:06:34.118Z,8.43
2022-09-25T15:09:04.281Z,8.55
2022-09-25T15:11:43.943Z,8.18
2022-09-25T15:14:16.473Z,8.70
2022-09-25T15:17:03.187Z,8.30
2022-09-25T15:19:37.199Z,8.60
2022-09-25T15:22:10.652Z,8.50
2022-09-25T15:24:40.363Z,8.60
2022-09-25T15:27:08.578Z,9.55
2022-09-25T15:29:37.902Z,8.90
2022-09-25T15:32:05.880Z,9.23
2022-09-25T15:34:33.359Z,8.75
2022-09-25T15:37:16.536Z,8.95
2022-09-25T15:39:44.376Z,9.98
2022-09-25T15:42:14.100Z,9.63
2022-09-25T15:44:41.447Z,9.48
2022-09-25T15:47:36.917Z,8.95
2022-09-25T15:50:08.684Z,9.45
2022-09-25T15:52:35.907Z,9.45
2022-09-25T15:55:10.089Z,9.50
2022-09-25T15:57:37.015Z,8.93
2022-09-25T16:00:34.523Z,9.15
2022-09-25T16:03:28.515Z,9.13
2022-09-25T16:05:56.401Z,9.15
2022-09-25T16:08:36.339Z,9.63
2022-09-25T16:11:17.337Z,9.82
2022-09-25T16:13:48.686Z,9.98
2022-09-25T16:16:29.850Z,9.70
2022-09-25T16:19:21.494Z,10.10
2022-09-25T16:21:48.706Z,10.23
2022-09-25T16:24:21.616Z,10.70
2022-09-25T16:26:57.846Z,11.23
2022-09-25T16:29:28.011Z,12.68
2022-09-25T16:32:02.054Z,12.20
2022-09-25T16:34:36.169Z,11.32
2022-09-25T16:37:05.271Z,11.50
2022-09-25T16:39:37.631Z,12.20
2022-09-25T16:42:40.239Z,12.18
2022-09-25T16:45:27.725Z,11.55
2022-09-25T16:47:55.013Z,12.00
2022-09-25T16:50:22.451Z,11.93
2022-09-25T16:52:50.065Z,12.05
2022-09-25T16:55:24.039Z,12.43
2022-09-25T16:57:52.973Z,12.55
2022-09-25T17:00:27.809Z,12.25
2022-09-25T17:02:55.010Z,12.48
2022-09-25T17:05:26.898Z,13.35
2022-09-25T17:07:56.487Z,14.07
2022-09-25T17:10:26.670Z,12.80
2022-09-25T17:12:55.695Z,14.13
2022-09-25T17:15:33.138Z,14.00
2022-09-25T17:18:01.848Z,19.48
2022-09-25T17:20:34.119Z,18.27
2022-09-25T17:23:01.011Z,28.17
2022-09-25T17:25:48.153Z,23.23
2022-09-25T17:28:15.626Z,21.45
2022-09-25T17:30:43.515Z,23.23
2022-09-25T17:33:19.655Z,19.77
2022-09-25T17:36:05.469Z,19.83
2022-09-25T17:38:33.941Z,18.65
2022-09-25T17:41:05.590Z,21.80
2022-09-25T17:43:33.149Z,19.13
2022-09-25T17:46:01.123Z,18.08
2022-09-25T17:48:31.934Z,16.45
2022-09-25T17:51:01.399Z,15.95
2022-09-25T17:53:33.774Z,16.50
2022-09-25T17:56:01.777Z,16.23
2022-09-25T17:58:30.495Z,18.13
2022-09-25T18:00:59.695Z,18.50
2022-09-25T18:03:27.167Z,18.13
2022-09-25T18:05:53.995Z,18.60
2022-09-25T18:08:21.123Z,18.42
2022-09-25T18:10:54.026Z,18.88
2022-09-25T18:13:21.756Z,19.45
2022-09-25T18:15:51.533Z,20.33
2022-09-25T18:18:18.347Z,19.48
2022-09-25T18:21:08.904Z,20.48
2022-09-25T18:23:41.577Z,20.55
2022-09-25T18:26:15.872Z,19.42
2022-09-25T18:28:45.676Z,19.67
2022-09-25T18:31:14.318Z,19.27
2022-09-25T18:33:45.296Z,23.55
2022-09-25T18:36:14.102Z,21.02
2022-09-25T18:38:40.844Z,19.90
2022-09-25T18:41:07.624Z,19.77
2022-09-25T18:43:34.477Z,20.52
2022-09-25T18:46:02.778Z,20.08
2022-09-25T18:48:29.607Z,19.67
2022-09-25T18:50:56.450Z,20.45
2022-09-25T18:53:24.638Z,20.65
2022-09-25T18:55:55.783Z,20.45
2022-09-25T18:58:24.006Z,21.40
2022-09-25T19:00:51.294Z,21.40
2022-09-25T19:03:18.056Z,21.70
2022-09-25T19:05:56.097Z,21.67
2022-09-25T19:08:25.626Z,22.17
2022-09-25T19:10:52.433Z,22.48
2022-09-25T19:13:19.457Z,23.10
2022-09-25T19:15:46.391Z,22.98
2022-09-25T19:18:14.156Z,22.83
2022-09-25T19:20:56.885Z,22.73
2022-09-25T19:23:26.492Z,23.15
2022-09-25T19:25:58.197Z,23.58
2022-09-25T19:28:28.678Z,24.58
2022-09-25T19:31:15.739Z,23.98
2022-09-25T19:33:45.194Z,24.20
2022-09-25T19:36:18.377Z,22.48
2022-09-25T19:38:50.319Z,23.20
2022-09-25T19:41:28.914Z,23.20
2022-09-25T19:44:04.135Z,23.80
2022-09-25T19:46:37.173Z,23.65
2022-09-25T19:49:08.018Z,23.52
2022-09-25T19:51:35.930Z,23.25
2022-09-25T19:54:05.754Z,23.23
2022-09-25T19:56:32.713Z,25.00
2022-09-25T19:59:00.832Z,25.55
2022-09-25T20:01:30.237Z,26.00
2022-09-25T20:03:58.533Z,24.73
2022-09-25T20:06:27.297Z,26.88
2022-09-25T20:08:58.460Z,26.45
2022-09-25T20:11:26.176Z,27.38
2022-09-25T20:13:54.601Z,25.60
2022-09-25T20:16:25.179Z,26.55
2022-09-25T20:19:00.417Z,27.95
2022-09-25T20:21:30.135Z,26.25
2022-09-25T20:24:00.500Z,26.83
2022-09-25T20:26:28.406Z,29.15
2022-09-25T20:29:00.294Z,28.40
2022-09-25T20:31:30.053Z,29.80
2022-09-25T20:33:57.212Z,30.85
2022-09-25T20:36:24.464Z,31.92
2022-09-25T20:38:53.006Z,32.55
2022-09-25T20:41:20.893Z,32.17
2022-09-25T20:43:56.209Z,32.13
2022-09-25T20:46:24.351Z,31.10
2022-09-25T20:48:52.466Z,30.67
2022-09-25T20:51:22.202Z,30.60
2022-09-25T20:53:54.429Z,30.15
2022-09-25T20:56:23.999Z,30.45
2022-09-25T20:58:54.415Z,30.35
2022-09-25T21:01:30.565Z,30.20
2022-09-25T21:04:01.333Z,30.15
2022-09-25T21:06:30.923Z,28.40
2022-09-25T21:09:02.209Z,27.73
2022-09-25T21:11:40.545Z,28.60
2022-09-25T21:14:28.020Z,28.48
2022-09-25T21:16:59.310Z,27.65
2022-09-25T21:19:30.020Z,27.30
2022-09-25T21:21:57.567Z,27.75
2022-09-25T21:24:24.611Z,26.92
2022-09-25T21:26:56.038Z,27.45
2022-09-25T21:29:22.942Z,27.88
2022-09-25T21:31:51.353Z,28.38
2022-09-25T21:34:19.143Z,27.55
2022-09-25T21:36:47.778Z,28.73
2022-09-25T21:39:15.603Z,28.33
2022-09-25T21:41:46.973Z,28.13
2022-09-25T21:44:18.438Z,29.02
2022-09-25T21:46:46.613Z,28.45
2022-09-25T21:49:17.014Z,27.45
2022-09-25T21:51:45.387Z,28.63
2022-09-25T21:54:13.754Z,28.15
2022-09-25T21:56:41.977Z,29.60
2022-09-25T21:59:09.623Z,28.33
2022-09-25T22:01:38.693Z,27.58
2022-09-25T22:04:06.558Z,27.40
2022-09-25T22:06:41.237Z,26.95
2022-09-25T22:09:17.296Z,27.30
2022-09-25T22:11:45.003Z,26.27
2022-09-25T22:14:16.142Z,26.88
2022-09-25T22:16:47.231Z,27.08
2022-09-25T22:19:27.283Z,25.73
2022-09-25T22:21:57.294Z,25.75
2022-09-25T22:24:24.801Z,25.98
2022-09-25T22:26:53.041Z,26.38
2022-09-25T22:29:26.012Z,25.98
2022-09-25T22:31:53.637Z,26.85
2022-09-25T22:34:26.654Z,25.80
2022-09-25T22:36:59.965Z,25.57
2022-09-25T22:39:28.827Z,26.92
2022-09-25T22:41:57.763Z,26.02
2022-09-25T22:44:25.213Z,26.33
2022-09-25T22:46:52.749Z,26.13
2022-09-25T22:49:23.075Z,26.77
2022-09-25T22:51:54.095Z,26.47
2022-09-25T22:54:23.096Z,26.40
2022-09-25T22:56:53.085Z,26.13
2022-09-25T22:59:20.238Z,26.50
2022-09-25T23:01:50.612Z,26.30
2022-09-25T23:04:23.394Z,25.80
2022-09-25T23:06:53.021Z,25.20
2022-09-25T23:09:23.012Z,26.10
